sensor_id;sensor_type;location;lat;lon;timestamp;pressure;altitude;pressure_sealevel;temperature;humidity
71504;BME280;59323;50.874;7.028;2023-09-07T00:00:48;101529.56;;;18.68;86.17
71504;BME280;59323;50.874;7.028;2023-09-07T00:03:14;101524.44;;;18.67;86.31
71504;BME280;59323;50.874;7.028;2023-09-07T00:05:40;101524.44;;;18.60;87.57
71504;BME280;59323;50.874;7.028;2023-09-07T00:08:06;101517.41;;;18.55;88.33
71504;BME280;59323;50.874;7.028;2023-09-07T00:10:35;101520.94;;;18.52;88.63
71504;BME280;59323;50.874;7.028;2023-09-07T00:13:04;101517.78;;;18.54;88.24
71504;BME280;59323;50.874;7.028;2023-09-07T00:15:30;101520.56;;;18.47;89.30
71504;BME280;59323;50.874;7.028;2023-09-07T00:18:00;101517.03;;;18.46;88.52
71504;BME280;59323;50.874;7.028;2023-09-07T00:20:25;101520.16;;;18.52;88.50
71504;BME280;59323;50.874;7.028;2023-09-07T00:22:51;101520.56;;;18.50;88.66
71504;BME280;59323;50.874;7.028;2023-09-07T00:25:16;101521.75;;;18.49;88.74
71504;BME280;59323;50.874;7.028;2023-09-07T00:27:45;101509.56;;;18.47;89.46
71504;BME280;59323;50.874;7.028;2023-09-07T00:30:13;101514.31;;;18.39;90.10
71504;BME280;59323;50.874;7.028;2023-09-07T00:32:39;101508.81;;;18.39;89.97
71504;BME280;59323;50.874;7.028;2023-09-07T00:35:11;101513.94;;;18.37;89.28
71504;BME280;59323;50.874;7.028;2023-09-07T00:37:37;101519.44;;;18.33;89.43
71504;BME280;59323;50.874;7.028;2023-09-07T00:40:03;101518.66;;;18.29;89.98
71504;BME280;59323;50.874;7.028;2023-09-07T00:42:29;101516.72;;;18.26;89.98
71504;BME280;59323;50.874;7.028;2023-09-07T00:44:54;101511.63;;;18.21;89.33
71504;BME280;59323;50.874;7.028;2023-09-07T00:47:21;101503.75;;;18.27;89.42
71504;BME280;59323;50.874;7.028;2023-09-07T00:49:50;101515.94;;;18.22;89.54
71504;BME280;59323;50.874;7.028;2023-09-07T00:52:17;101516.72;;;18.19;89.88
71504;BME280;59323;50.874;7.028;2023-09-07T00:54:47;101521.03;;;18.17;90.08
71504;BME280;59323;50.874;7.028;2023-09-07T00:57:12;101516.72;;;18.16;89.96
71504;BME280;59323;50.874;7.028;2023-09-07T00:59:44;101517.91;;;18.11;90.16
71504;BME280;59323;50.874;7.028;2023-09-07T01:02:10;101518.69;;;18.08;90.33
71504;BME280;59323;50.874;7.028;2023-09-07T01:04:35;101513.59;;;18.06;90.73
71504;BME280;59323;50.874;7.028;2023-09-07T01:07:17;101515.56;;;18.02;90.68
71504;BME280;59323;50.874;7.028;2023-09-07T01:09:47;101525.00;;;18.05;90.29
71504;BME280;59323;50.874;7.028;2023-09-07T01:12:15;101507.72;;;17.97;90.82
71504;BME280;59323;50.874;7.028;2023-09-07T01:14:40;101507.31;;;17.99;90.95
71504;BME280;59323;50.874;7.028;2023-09-07T01:17:06;101499.88;;;17.99;90.64
71504;BME280;59323;50.874;7.028;2023-09-07T01:19:32;101507.34;;;17.95;91.03
71504;BME280;59323;50.874;7.028;2023-09-07T01:21:58;101490.44;;;17.93;91.65
71504;BME280;59323;50.874;7.028;2023-09-07T01:24:25;101497.53;;;17.94;90.79
71504;BME280;59323;50.874;7.028;2023-09-07T01:26:55;101501.06;;;17.95;90.61
71504;BME280;59323;50.874;7.028;2023-09-07T01:29:22;101501.84;;;17.95;90.95
71504;BME280;59323;50.874;7.028;2023-09-07T01:31:47;101495.16;;;17.93;90.56
71504;BME280;59323;50.874;7.028;2023-09-07T01:34:13;101501.44;;;17.90;91.22
71504;BME280;59323;50.874;7.028;2023-09-07T01:36:38;101490.88;;;17.81;91.39
71504;BME280;59323;50.874;7.028;2023-09-07T01:39:04;101490.47;;;17.79;91.78
71504;BME280;59323;50.874;7.028;2023-09-07T01:41:32;101477.91;;;17.74;91.58
71504;BME280;59323;50.874;7.028;2023-09-07T01:44:07;101484.59;;;17.77;91.59
71504;BME280;59323;50.874;7.028;2023-09-07T01:46:33;101478.69;;;17.71;91.77
71504;BME280;59323;50.874;7.028;2023-09-07T01:48:58;101488.13;;;17.74;91.60
71504;BME280;59323;50.874;7.028;2023-09-07T01:51:23;101487.72;;;17.72;91.38
71504;BME280;59323;50.874;7.028;2023-09-07T01:53:53;101483.00;;;17.65;91.57
71504;BME280;59323;50.874;7.028;2023-09-07T01:56:19;101484.97;;;17.65;91.76
71504;BME280;59323;50.874;7.028;2023-09-07T01:58:44;101490.84;;;17.63;91.92
71504;BME280;59323;50.874;7.028;2023-09-07T02:01:23;101493.59;;;17.63;91.36
71504;BME280;59323;50.874;7.028;2023-09-07T02:03:49;101496.34;;;17.63;91.77
71504;BME280;59323;50.874;7.028;2023-09-07T02:06:14;101485.34;;;17.63;91.43
71504;BME280;59323;50.874;7.028;2023-09-07T02:08:40;101488.91;;;17.60;91.92
71504;BME280;59323;50.874;7.028;2023-09-07T02:11:05;101497.94;;;17.61;91.77
71504;BME280;59323;50.874;7.028;2023-09-07T02:13:31;101489.28;;;17.59;91.51
71504;BME280;59323;50.874;7.028;2023-09-07T02:16:06;101489.25;;;17.55;91.41
71504;BME280;59323;50.874;7.028;2023-09-07T02:18:32;101489.66;;;17.54;91.36
71504;BME280;59323;50.874;7.028;2023-09-07T02:21:02;101486.50;;;17.52;91.19
71504;BME280;59323;50.874;7.028;2023-09-07T02:23:29;101486.13;;;17.53;90.96
71504;BME280;59323;50.874;7.028;2023-09-07T02:25:54;101482.59;;;17.53;90.72
71504;BME280;59323;50.874;7.028;2023-09-07T02:28:20;101488.13;;;17.56;90.58
71504;BME280;59323;50.874;7.028;2023-09-07T02:30:46;101486.13;;;17.53;91.20
71504;BME280;59323;50.874;7.028;2023-09-07T02:33:11;101484.94;;;17.54;90.93
71504;BME280;59323;50.874;7.028;2023-09-07T02:35:37;101485.72;;;17.55;90.70
71504;BME280;59323;50.874;7.028;2023-09-07T02:38:02;101486.91;;;17.50;91.35
71504;BME280;59323;50.874;7.028;2023-09-07T02:40:28;101489.66;;;17.50;91.27
71504;BME280;59323;50.874;7.028;2023-09-07T02:42:53;101483.38;;;17.50;90.75
71504;BME280;59323;50.874;7.028;2023-09-07T02:45:19;101489.25;;;17.52;90.68
71504;BME280;59323;50.874;7.028;2023-09-07T02:47:44;101487.69;;;17.51;90.67
71504;BME280;59323;50.874;7.028;2023-09-07T02:50:13;101482.59;;;17.49;90.78
71504;BME280;59323;50.874;7.028;2023-09-07T02:52:39;101477.50;;;17.48;90.44
71504;BME280;59323;50.874;7.028;2023-09-07T02:55:05;101481.41;;;17.47;90.55
71504;BME280;59323;50.874;7.028;2023-09-07T02:57:31;101483.38;;;17.42;90.54
71504;BME280;59323;50.874;7.028;2023-09-07T02:59:57;101485.34;;;17.42;90.69
71504;BME280;59323;50.874;7.028;2023-09-07T03:02:25;101484.16;;;17.36;91.01
71504;BME280;59323;50.874;7.028;2023-09-07T03:04:54;101485.72;;;17.33;90.91
71504;BME280;59323;50.874;7.028;2023-09-07T03:07:20;101486.91;;;17.32;90.32
71504;BME280;59323;50.874;7.028;2023-09-07T03:09:45;101481.81;;;17.27;90.90
71504;BME280;59323;50.874;7.028;2023-09-07T03:12:11;101481.03;;;17.20;91.54
71504;BME280;59323;50.874;7.028;2023-09-07T03:14:36;101477.88;;;17.18;91.14
71504;BME280;59323;50.874;7.028;2023-09-07T03:17:02;101478.66;;;17.18;90.82
71504;BME280;59323;50.874;7.028;2023-09-07T03:19:28;101475.53;;;17.20;91.00
71504;BME280;59323;50.874;7.028;2023-09-07T03:21:54;101489.25;;;17.20;91.59
71504;BME280;59323;50.874;7.028;2023-09-07T03:24:19;101484.16;;;17.18;91.34
71504;BME280;59323;50.874;7.028;2023-09-07T03:26:47;101479.84;;;17.17;91.23
71504;BME280;59323;50.874;7.028;2023-09-07T03:29:13;101484.56;;;17.17;91.33
71504;BME280;59323;50.874;7.028;2023-09-07T03:31:38;101475.91;;;17.11;91.70
71504;BME280;59323;50.874;7.028;2023-09-07T03:34:03;101477.09;;;17.06;91.88
71504;BME280;59323;50.874;7.028;2023-09-07T03:36:30;101477.88;;;17.03;91.74
71504;BME280;59323;50.874;7.028;2023-09-07T03:38:55;101478.66;;;17.04;91.79
71504;BME280;59323;50.874;7.028;2023-09-07T03:41:21;101475.91;;;17.04;91.76
71504;BME280;59323;50.874;7.028;2023-09-07T03:43:46;101477.47;;;16.98;92.28
71504;BME280;59323;50.874;7.028;2023-09-07T03:46:14;101472.38;;;16.96;91.83
71504;BME280;59323;50.874;7.028;2023-09-07T03:48:40;101473.88;;;16.90;92.35
71504;BME280;59323;50.874;7.028;2023-09-07T03:51:06;101476.25;;;16.88;92.39
71504;BME280;59323;50.874;7.028;2023-09-07T03:53:32;101470.34;;;16.86;92.19
71504;BME280;59323;50.874;7.028;2023-09-07T03:55:57;101473.09;;;16.86;92.59
71504;BME280;59323;50.874;7.028;2023-09-07T03:58:23;101473.88;;;16.83;92.57
71504;BME280;59323;50.874;7.028;2023-09-07T04:00:49;101479.34;;;16.76;92.64
71504;BME280;59323;50.874;7.028;2023-09-07T04:03:15;101465.22;;;16.74;92.83
71504;BME280;59323;50.874;7.028;2023-09-07T04:05:40;101476.59;;;16.69;93.14
71504;BME280;59323;50.874;7.028;2023-09-07T04:08:06;101479.69;;;16.64;93.22
71504;BME280;59323;50.874;7.028;2023-09-07T04:10:31;101470.66;;;16.63;93.30
71504;BME280;59323;50.874;7.028;2023-09-07T04:12:56;101484.38;;;16.63;93.20
71504;BME280;59323;50.874;7.028;2023-09-07T04:15:22;101478.09;;;16.59;94.00
71504;BME280;59323;50.874;7.028;2023-09-07T04:17:49;101478.84;;;16.53;94.67
71504;BME280;59323;50.874;7.028;2023-09-07T04:20:15;101483.97;;;16.58;94.15
71504;BME280;59323;50.874;7.028;2023-09-07T04:22:40;101476.91;;;16.57;93.96
71504;BME280;59323;50.874;7.028;2023-09-07T04:25:06;101471.44;;;16.57;93.90
71504;BME280;59323;50.874;7.028;2023-09-07T04:27:31;101464.75;;;16.54;93.67
71504;BME280;59323;50.874;7.028;2023-09-07T04:29:57;101471.41;;;16.49;94.02
71504;BME280;59323;50.874;7.028;2023-09-07T04:32:22;101473.38;;;16.53;93.94
71504;BME280;59323;50.874;7.028;2023-09-07T04:34:53;101469.03;;;16.48;94.03
71504;BME280;59323;50.874;7.028;2023-09-07T04:37:18;101472.19;;;16.50;94.29
71504;BME280;59323;50.874;7.028;2023-09-07T04:39:43;101478.84;;;16.45;94.33
71504;BME280;59323;50.874;7.028;2023-09-07T04:42:09;101475.28;;;16.41;94.00
71504;BME280;59323;50.874;7.028;2023-09-07T04:44:34;101480.41;;;16.43;93.97
71504;BME280;59323;50.874;7.028;2023-09-07T04:46:59;101480.00;;;16.44;93.72
71504;BME280;59323;50.874;7.028;2023-09-07T04:49:25;101477.25;;;16.44;93.73
71504;BME280;59323;50.874;7.028;2023-09-07T04:51:54;101483.94;;;16.47;93.77
71504;BME280;59323;50.874;7.028;2023-09-07T04:54:19;101484.72;;;16.47;93.68
71504;BME280;59323;50.874;7.028;2023-09-07T04:56:45;101486.69;;;16.47;93.65
71504;BME280;59323;50.874;7.028;2023-09-07T04:59:10;101492.56;;;16.45;93.75
71504;BME280;59323;50.874;7.028;2023-09-07T05:01:42;101493.72;;;16.44;93.97
71504;BME280;59323;50.874;7.028;2023-09-07T05:04:14;101498.03;;;16.42;94.26
71504;BME280;59323;50.874;7.028;2023-09-07T05:06:40;101490.94;;;16.34;94.73
71504;BME280;59323;50.874;7.028;2023-09-07T05:09:09;101484.63;;;16.26;94.20
71504;BME280;59323;50.874;7.028;2023-09-07T05:11:35;101490.91;;;16.30;94.42
71504;BME280;59323;50.874;7.028;2023-09-07T05:14:01;101485.78;;;16.25;94.25
71504;BME280;59323;50.874;7.028;2023-09-07T05:16:27;101485.38;;;16.23;94.56
71504;BME280;59323;50.874;7.028;2023-09-07T05:18:53;101486.16;;;16.24;94.80
71504;BME280;59323;50.874;7.028;2023-09-07T05:21:18;101499.50;;;16.25;94.54
71504;BME280;59323;50.874;7.028;2023-09-07T05:23:44;101497.91;;;16.24;94.47
71504;BME280;59323;50.874;7.028;2023-09-07T05:26:10;101502.66;;;16.27;94.35
71504;BME280;59323;50.874;7.028;2023-09-07T05:28:35;101498.69;;;16.25;94.31
71504;BME280;59323;50.874;7.028;2023-09-07T05:31:00;101504.22;;;16.28;94.39
71504;BME280;59323;50.874;7.028;2023-09-07T05:33:26;101507.00;;;16.35;93.88
71504;BME280;59323;50.874;7.028;2023-09-07T05:35:51;101503.88;;;16.33;94.58
71504;BME280;59323;50.874;7.028;2023-09-07T05:38:17;101510.13;;;16.34;94.33
71504;BME280;59323;50.874;7.028;2023-09-07T05:40:44;101508.97;;;16.35;94.03
71504;BME280;59323;50.874;7.028;2023-09-07T05:43:10;101522.28;;;16.36;94.44
71504;BME280;59323;50.874;7.028;2023-09-07T05:45:38;101519.97;;;16.42;93.60
71504;BME280;59323;50.874;7.028;2023-09-07T05:48:04;101519.59;;;16.43;93.85
71504;BME280;59323;50.874;7.028;2023-09-07T05:50:31;101519.19;;;16.45;93.43
71504;BME280;59323;50.874;7.028;2023-09-07T05:52:57;101516.06;;;16.46;93.46
71504;BME280;59323;50.874;7.028;2023-09-07T05:55:22;101514.53;;;16.56;93.23
71504;BME280;59323;50.874;7.028;2023-09-07T05:57:48;101511.81;;;16.60;92.99
71504;BME280;59323;50.874;7.028;2023-09-07T06:00:14;101508.28;;;16.63;92.43
71504;BME280;59323;50.874;7.028;2023-09-07T06:02:42;101501.28;;;16.69;92.26
71504;BME280;59323;50.874;7.028;2023-09-07T06:05:08;101512.69;;;16.78;92.02
71504;BME280;59323;50.874;7.028;2023-09-07T06:07:35;101512.31;;;16.87;91.50
71504;BME280;59323;50.874;7.028;2023-09-07T06:10:00;101525.31;;;16.97;90.79
71504;BME280;59323;50.874;7.028;2023-09-07T06:12:26;101528.09;;;17.11;90.65
71504;BME280;59323;50.874;7.028;2023-09-07T06:14:51;101528.13;;;17.25;90.23
71504;BME280;59323;50.874;7.028;2023-09-07T06:17:16;101532.06;;;17.38;89.28
71504;BME280;59323;50.874;7.028;2023-09-07T06:19:42;101526.56;;;17.49;88.38
71504;BME280;59323;50.874;7.028;2023-09-07T06:22:08;101531.69;;;17.61;87.91
71504;BME280;59323;50.874;7.028;2023-09-07T06:24:34;101537.59;;;17.78;86.53
71504;BME280;59323;50.874;7.028;2023-09-07T06:26:59;101541.53;;;17.91;85.78
71504;BME280;59323;50.874;7.028;2023-09-07T06:29:25;101547.78;;;18.05;85.14
71504;BME280;59323;50.874;7.028;2023-09-07T06:31:50;101548.16;;;18.25;84.91
71504;BME280;59323;50.874;7.028;2023-09-07T06:34:17;101546.94;;;18.41;83.95
71504;BME280;59323;50.874;7.028;2023-09-07T06:36:42;101553.94;;;18.59;83.50
71504;BME280;59323;50.874;7.028;2023-09-07T06:39:08;101555.09;;;18.76;83.18
71504;BME280;59323;50.874;7.028;2023-09-07T06:41:34;101548.34;;;18.91;82.00
71504;BME280;59323;50.874;7.028;2023-09-07T06:43:59;101552.97;;;19.09;81.40
71504;BME280;59323;50.874;7.028;2023-09-07T06:46:25;101561.91;;;19.27;81.10
71504;BME280;59323;50.874;7.028;2023-09-07T06:48:50;101548.78;;;19.45;79.87
71504;BME280;59323;50.874;7.028;2023-09-07T06:51:15;101558.97;;;19.62;79.40
71504;BME280;59323;50.874;7.028;2023-09-07T06:53:41;101560.84;;;19.73;78.40
71504;BME280;59323;50.874;7.028;2023-09-07T06:56:06;101561.56;;;19.80;78.04
71504;BME280;59323;50.874;7.028;2023-09-07T06:58:35;101564.53;;;20.00;77.78
71504;BME280;59323;50.874;7.028;2023-09-07T07:01:01;101548.63;;;20.15;76.28
71504;BME280;59323;50.874;7.028;2023-09-07T07:03:28;101561.44;;;20.36;76.17
71504;BME280;59323;50.874;7.028;2023-09-07T07:05:55;101565.13;;;20.60;76.19
71504;BME280;59323;50.874;7.028;2023-09-07T07:08:20;101569.59;;;20.80;73.91
71504;BME280;59323;50.874;7.028;2023-09-07T07:10:46;101560.31;;;20.98;73.46
71504;BME280;59323;50.874;7.028;2023-09-07T07:13:11;101573.06;;;21.18;70.85
71504;BME280;59323;50.874;7.028;2023-09-07T07:15:37;101572.03;;;21.36;71.56
71504;BME280;59323;50.874;7.028;2023-09-07T07:18:05;101577.53;;;21.66;71.29
71504;BME280;59323;50.874;7.028;2023-09-07T07:20:38;101562.53;;;21.87;68.79
71504;BME280;59323;50.874;7.028;2023-09-07T07:23:14;101555.31;;;21.93;68.04
71504;BME280;59323;50.874;7.028;2023-09-07T07:25:39;101569.28;;;22.33;68.46
71504;BME280;59323;50.874;7.028;2023-09-07T07:28:05;101564.31;;;22.64;68.35
71504;BME280;59323;50.874;7.028;2023-09-07T07:30:35;101575.25;;;22.71;64.76
71504;BME280;59323;50.874;7.028;2023-09-07T07:33:02;101570.50;;;22.91;64.81
71504;BME280;59323;50.874;7.028;2023-09-07T07:35:33;101569.41;;;23.05;63.85
71504;BME280;59323;50.874;7.028;2023-09-07T07:38:06;101572.56;;;23.23;63.88
71504;BME280;59323;50.874;7.028;2023-09-07T07:40:33;101566.84;;;23.30;62.57
71504;BME280;59323;50.874;7.028;2023-09-07T07:43:02;101573.13;;;23.51;62.16
71504;BME280;59323;50.874;7.028;2023-09-07T07:45:28;101577.84;;;23.70;62.28
71504;BME280;59323;50.874;7.028;2023-09-07T07:47:56;101579.41;;;23.71;61.31
71504;BME280;59323;50.874;7.028;2023-09-07T07:50:25;101569.22;;;23.97;61.70
71504;BME280;59323;50.874;7.028;2023-09-07T07:52:50;101576.41;;;24.27;62.22
71504;BME280;59323;50.874;7.028;2023-09-07T07:55:19;101560.56;;;24.40;59.94
71504;BME280;59323;50.874;7.028;2023-09-07T07:57:57;101559.44;;;24.38;58.90
71504;BME280;59323;50.874;7.028;2023-09-07T08:00:22;101571.28;;;24.54;58.28
71504;BME280;59323;50.874;7.028;2023-09-07T08:02:51;101567.41;;;24.64;59.29
71504;BME280;59323;50.874;7.028;2023-09-07T08:05:16;101568.53;;;24.67;56.84
71504;BME280;59323;50.874;7.028;2023-09-07T08:07:51;101563.47;;;24.91;58.74
71504;BME280;59323;50.874;7.028;2023-09-07T08:10:19;101570.06;;;25.22;57.71
71504;BME280;59323;50.874;7.028;2023-09-07T08:12:54;101576.88;;;25.09;55.76
71504;BME280;59323;50.874;7.028;2023-09-07T08:15:37;101569.75;;;25.20;57.13
71504;BME280;59323;50.874;7.028;2023-09-07T08:18:03;101568.50;;;25.34;56.99
71504;BME280;59323;50.874;7.028;2023-09-07T08:20:28;101560.41;;;25.40;55.76
71504;BME280;59323;50.874;7.028;2023-09-07T08:22:55;101557.72;;;25.62;56.53
71504;BME280;59323;50.874;7.028;2023-09-07T08:25:20;101559.50;;;25.68;55.47
71504;BME280;59323;50.874;7.028;2023-09-07T08:27:46;101557.09;;;25.92;54.60
71504;BME280;59323;50.874;7.028;2023-09-07T08:30:16;101559.19;;;26.01;54.29
71504;BME280;59323;50.874;7.028;2023-09-07T08:32:47;101551.78;;;26.19;54.18
71504;BME280;59323;50.874;7.028;2023-09-07T08:35:16;101555.03;;;26.40;51.77
71504;BME280;59323;50.874;7.028;2023-09-07T08:37:50;101561.19;;;26.57;53.51
71504;BME280;59323;50.874;7.028;2023-09-07T08:40:27;101560.22;;;26.50;51.85
71504;BME280;59323;50.874;7.028;2023-09-07T08:42:59;101562.63;;;26.61;52.08
71504;BME280;59323;50.874;7.028;2023-09-07T08:45:29;101551.72;;;26.54;51.05
71504;BME280;59323;50.874;7.028;2023-09-07T08:47:56;101550.22;;;26.62;50.01
71504;BME280;59323;50.874;7.028;2023-09-07T08:50:28;101553.03;;;26.40;51.58
71504;BME280;59323;50.874;7.028;2023-09-07T08:53:01;101551.88;;;26.72;52.09
71504;BME280;59323;50.874;7.028;2023-09-07T08:55:31;101545.97;;;26.48;51.84
71504;BME280;59323;50.874;7.028;2023-09-07T08:57:57;101550.09;;;26.66;52.64
71504;BME280;59323;50.874;7.028;2023-09-07T09:00:28;101545.88;;;26.83;51.77
71504;BME280;59323;50.874;7.028;2023-09-07T09:02:56;101553.75;;;27.06;51.75
71504;BME280;59323;50.874;7.028;2023-09-07T09:05:43;101541.69;;;27.19;50.58
71504;BME280;59323;50.874;7.028;2023-09-07T09:08:09;101542.03;;;27.21;50.20
71504;BME280;59323;50.874;7.028;2023-09-07T09:11:02;101554.22;;;27.45;50.37
71504;BME280;59323;50.874;7.028;2023-09-07T09:13:43;101545.03;;;27.35;49.96
71504;BME280;59323;50.874;7.028;2023-09-07T09:16:18;101548.66;;;27.54;50.05
71504;BME280;59323;50.874;7.028;2023-09-07T09:18:48;101543.69;;;27.58;49.77
71504;BME280;59323;50.874;7.028;2023-09-07T09:25:56;101535.06;;;27.84;49.73
71504;BME280;59323;50.874;7.028;2023-09-07T09:28:28;101530.25;;;27.93;49.93
71504;BME280;59323;50.874;7.028;2023-09-07T09:41:09;101524.97;;;28.41;50.28
71504;BME280;59323;50.874;7.028;2023-09-07T09:43:47;101512.69;;;28.48;48.98
71504;BME280;59323;50.874;7.028;2023-09-07T09:46:17;101520.44;;;28.53;48.24
71504;BME280;59323;50.874;7.028;2023-09-07T09:52:42;101507.63;;;28.79;48.81
71504;BME280;59323;50.874;7.028;2023-09-07T10:10:24;101499.00;;;29.01;47.13
71504;BME280;59323;50.874;7.028;2023-09-07T10:12:53;101498.66;;;29.08;47.13
71504;BME280;59323;50.874;7.028;2023-09-07T10:15:26;101485.59;;;29.05;47.41
71504;BME280;59323;50.874;7.028;2023-09-07T10:18:12;101496.50;;;29.03;47.24
71504;BME280;59323;50.874;7.028;2023-09-07T10:20:55;101494.19;;;29.25;48.75
71504;BME280;59323;50.874;7.028;2023-09-07T10:23:22;101491.56;;;29.55;48.83
71504;BME280;59323;50.874;7.028;2023-09-07T10:25:52;101488.31;;;29.71;47.07
71504;BME280;59323;50.874;7.028;2023-09-07T10:28:22;101493.22;;;29.61;47.28
71504;BME280;59323;50.874;7.028;2023-09-07T10:31:18;101477.63;;;29.46;46.77
71504;BME280;59323;50.874;7.028;2023-09-07T10:33:45;101473.03;;;29.57;47.43
71504;BME280;59323;50.874;7.028;2023-09-07T10:36:25;101466.69;;;29.72;46.81
71504;BME280;59323;50.874;7.028;2023-09-07T10:38:52;101479.06;;;29.80;45.09
71504;BME280;59323;50.874;7.028;2023-09-07T10:41:22;101473.38;;;29.89;45.86
71504;BME280;59323;50.874;7.028;2023-09-07T10:43:53;101460.50;;;29.67;45.44
71504;BME280;59323;50.874;7.028;2023-09-07T10:46:22;101464.75;;;29.78;46.89
71504;BME280;59323;50.874;7.028;2023-09-07T10:48:49;101450.38;;;29.85;46.43
71504;BME280;59323;50.874;7.028;2023-09-07T10:51:19;101450.47;;;29.90;46.17
71504;BME280;59323;50.874;7.028;2023-09-07T10:53:45;101441.63;;;29.92;45.95
71504;BME280;59323;50.874;7.028;2023-09-07T10:56:11;101443.16;;;29.93;46.51
71504;BME280;59323;50.874;7.028;2023-09-07T10:58:37;101435.63;;;29.99;44.75
71504;BME280;59323;50.874;7.028;2023-09-07T11:01:08;101439.69;;;29.98;45.54
71504;BME280;59323;50.874;7.028;2023-09-07T11:03:34;101432.19;;;29.80;46.09
71504;BME280;59323;50.874;7.028;2023-09-07T11:06:10;101434.97;;;30.04;45.59
71504;BME280;59323;50.874;7.028;2023-09-07T11:08:37;101436.78;;;29.92;44.45
71504;BME280;59323;50.874;7.028;2023-09-07T11:11:03;101431.88;;;30.02;45.71
71504;BME280;59323;50.874;7.028;2023-09-07T11:13:29;101430.91;;;30.05;44.71
71504;BME280;59323;50.874;7.028;2023-09-07T11:15:56;101426.44;;;29.98;44.01
71504;BME280;59323;50.874;7.028;2023-09-07T11:18:22;101434.50;;;30.06;44.58
71504;BME280;59323;50.874;7.028;2023-09-07T11:20:48;101427.00;;;29.88;45.47
71504;BME280;59323;50.874;7.028;2023-09-07T11:23:14;101429.88;;;29.79;44.17
71504;BME280;59323;50.874;7.028;2023-09-07T11:25:39;101425.25;;;29.76;44.61
71504;BME280;59323;50.874;7.028;2023-09-07T11:28:06;101421.28;;;29.82;46.04
71504;BME280;59323;50.874;7.028;2023-09-07T11:30:55;101429.50;;;29.86;44.63
71504;BME280;59323;50.874;7.028;2023-09-07T11:33:21;101420.22;;;29.80;45.90
71504;BME280;59323;50.874;7.028;2023-09-07T11:35:47;101418.41;;;29.91;46.18
71504;BME280;59323;50.874;7.028;2023-09-07T11:38:14;101434.69;;;30.02;45.99
71504;BME280;59323;50.874;7.028;2023-09-07T11:40:40;101418.94;;;30.05;44.23
71504;BME280;59323;50.874;7.028;2023-09-07T11:43:10;101428.66;;;29.94;44.92
71504;BME280;59323;50.874;7.028;2023-09-07T11:45:35;101421.81;;;29.95;45.54
71504;BME280;59323;50.874;7.028;2023-09-07T11:48:01;101423.53;;;29.93;44.89
71504;BME280;59323;50.874;7.028;2023-09-07T11:50:26;101416.44;;;29.83;44.40
71504;BME280;59323;50.874;7.028;2023-09-07T11:52:55;101420.41;;;29.91;44.46
71504;BME280;59323;50.874;7.028;2023-09-07T11:55:21;101416.38;;;29.92;44.87
71504;BME280;59323;50.874;7.028;2023-09-07T11:57:47;101405.47;;;29.94;44.43
71504;BME280;59323;50.874;7.028;2023-09-07T12:00:12;101416.78;;;30.00;45.37
71504;BME280;59323;50.874;7.028;2023-09-07T12:02:40;101396.16;;;29.88;45.73
71504;BME280;59323;50.874;7.028;2023-09-07T12:05:06;101412.44;;;29.98;45.09
71504;BME280;59323;50.874;7.028;2023-09-07T12:07:38;101407.59;;;29.99;44.11
71504;BME280;59323;50.874;7.028;2023-09-07T12:10:04;101399.66;;;29.97;44.04
71504;BME280;59323;50.874;7.028;2023-09-07T12:12:29;101420.28;;;30.09;43.34
71504;BME280;59323;50.874;7.028;2023-09-07T12:14:55;101414.66;;;29.94;43.78
71504;BME280;59323;50.874;7.028;2023-09-07T12:17:22;101412.97;;;29.88;43.88
71504;BME280;59323;50.874;7.028;2023-09-07T12:19:50;101399.34;;;29.81;44.93
71504;BME280;59323;50.874;7.028;2023-09-07T12:22:18;101389.72;;;29.96;45.04
71504;BME280;59323;50.874;7.028;2023-09-07T12:24:44;101383.63;;;29.98;45.90
71504;BME280;59323;50.874;7.028;2023-09-07T12:27:09;101389.34;;;30.18;44.61
71504;BME280;59323;50.874;7.028;2023-09-07T12:29:35;101384.50;;;30.04;45.54
71504;BME280;59323;50.874;7.028;2023-09-07T12:32:00;101369.44;;;30.02;45.28
71504;BME280;59323;50.874;7.028;2023-09-07T12:34:25;101377.75;;;30.11;45.35
71504;BME280;59323;50.874;7.028;2023-09-07T12:36:51;101376.00;;;30.13;44.48
71504;BME280;59323;50.874;7.028;2023-09-07T12:39:18;101368.34;;;30.14;43.11
71504;BME280;59323;50.874;7.028;2023-09-07T12:41:44;101376.38;;;30.06;42.77
71504;BME280;59323;50.874;7.028;2023-09-07T12:44:12;101369.63;;;30.13;44.24
71504;BME280;59323;50.874;7.028;2023-09-07T12:46:38;101369.22;;;30.20;43.37
71504;BME280;59323;50.874;7.028;2023-09-07T12:49:04;101369.50;;;30.22;44.68
71504;BME280;59323;50.874;7.028;2023-09-07T12:51:30;101365.28;;;30.12;42.33
71504;BME280;59323;50.874;7.028;2023-09-07T12:53:56;101376.09;;;30.19;42.10
71504;BME280;59323;50.874;7.028;2023-09-07T12:56:21;101361.22;;;30.13;42.58
71504;BME280;59323;50.874;7.028;2023-09-07T12:58:47;101372.63;;;30.09;42.06
71504;BME280;59323;50.874;7.028;2023-09-07T13:01:12;101360.84;;;30.05;41.44
71504;BME280;59323;50.874;7.028;2023-09-07T13:03:40;101368.94;;;30.03;42.86
71504;BME280;59323;50.874;7.028;2023-09-07T13:06:08;101366.25;;;30.09;42.75
71504;BME280;59323;50.874;7.028;2023-09-07T13:08:34;101358.69;;;30.15;43.24
71504;BME280;59323;50.874;7.028;2023-09-07T13:10:59;101360.91;;;30.25;42.06
71504;BME280;59323;50.874;7.028;2023-09-07T13:13:25;101360.03;;;30.19;40.98
71504;BME280;59323;50.874;7.028;2023-09-07T13:15:58;101353.84;;;30.15;40.65
71504;BME280;59323;50.874;7.028;2023-09-07T13:18:32;101335.13;;;30.07;41.30
71504;BME280;59323;50.874;7.028;2023-09-07T13:20:58;101337.44;;;30.08;41.67
71504;BME280;59323;50.874;7.028;2023-09-07T13:23:28;101335.41;;;30.09;42.70
71504;BME280;59323;50.874;7.028;2023-09-07T13:25:56;101333.75;;;30.02;40.77